Terminal Aerodrome Forecast
Issued by NWS

Current Version | Previous Version | Text Only | Print | Product List | Glossary On
Versions: 1 2 3 4 5 6 7 8 9 10 11 12 13 14
837
FTUS46 KSGX 271124
TAFTRM
TAF
KTRM 271124Z 2712/2812 31010KT P6SM SKC
     FM280000 32020G30KT P6SM SKC
     FM281000 33010G20KT P6SM SKC=

USA.gov is the U.S. government's official web portal to all federal, state and local government web resources and services.